Time;durP1;ratioP1;P1;durP2;ratioP2;P2;SDS_P1;SDS_P2;PMS_P1;PMS_P2;Temp;Humidity;BMP_temperature;BMP_pressure;BME280_temperature;BME280_humidity;BME280_pressure;Samples;Min_cycle;Max_cycle;Signal;HPM_P1;HPM_P2
2023/04/13 00:01:00;;;;;;;7.30;2.85;;;6.00;99.90;;;;;;5074529;28;20416;-58
2023/04/13 00:06:28;;;;;;;8.05;3.00;;;6.00;99.90;;;;;;5073500;28;20049;-55
2023/04/13 00:08:54;;;;;;;6.85;2.20;;;6.00;99.90;;;;;;5072121;28;20046;-55
2023/04/13 00:11:20;;;;;;;7.20;2.60;;;6.20;99.90;;;;;;5072778;28;20036;-58
2023/04/13 00:13:46;;;;;;;5.88;2.47;;;6.10;99.90;;;;;;5073550;28;20044;-57
2023/04/13 00:16:14;;;;;;;6.18;2.33;;;6.10;99.90;;;;;;5072847;28;20085;-57
2023/04/13 00:18:41;;;;;;;6.68;2.60;;;6.20;99.90;;;;;;5073340;28;20040;-58
2023/04/13 00:21:07;;;;;;;8.30;3.10;;;6.10;99.90;;;;;;5073185;28;20391;-58
2023/04/13 00:23:34;;;;;;;5.60;2.28;;;6.20;99.90;;;;;;5073083;28;20033;-57
2023/04/13 00:26:00;;;;;;;10.55;3.00;;;6.10;99.90;;;;;;5071943;28;20052;-58
2023/04/13 00:28:27;;;;;;;10.13;3.38;;;6.20;99.90;;;;;;5073050;28;20040;-57
2023/04/13 00:30:54;;;;;;;8.20;3.30;;;6.30;99.90;;;;;;5073182;28;20068;-58
2023/04/13 00:33:20;;;;;;;8.77;3.13;;;6.30;99.90;;;;;;5073117;28;20215;-59
2023/04/13 00:35:45;;;;;;;7.25;2.67;;;6.40;99.90;;;;;;5072910;28;20090;-58
2023/04/13 00:38:11;;;;;;;8.43;2.85;;;6.40;99.90;;;;;;5072909;28;20044;-59
2023/04/13 00:40:36;;;;;;;6.25;2.78;;;6.40;99.90;;;;;;5072676;28;20041;-58
2023/04/13 00:43:04;;;;;;;7.80;3.25;;;6.50;99.90;;;;;;5071786;28;20036;-59
2023/04/13 00:45:37;;;;;;;6.55;2.80;;;6.50;99.90;;;;;;5071645;28;20053;-56
2023/04/13 00:48:04;;;;;;;8.65;3.20;;;6.60;99.90;;;;;;5072750;28;20443;-59
2023/04/13 00:50:32;;;;;;;6.55;3.28;;;6.50;99.90;;;;;;5072715;28;20036;-58
2023/04/13 00:52:59;;;;;;;6.60;3.05;;;6.60;99.90;;;;;;5072559;28;20059;-58
2023/04/13 00:55:26;;;;;;;6.95;3.05;;;6.50;99.90;;;;;;5072890;28;20397;-58
2023/04/13 00:57:52;;;;;;;9.02;3.63;;;6.60;99.90;;;;;;5072702;28;20056;-58
2023/04/13 01:00:19;;;;;;;7.22;3.75;;;6.60;99.90;;;;;;5071610;28;20048;-59
2023/04/13 01:02:45;;;;;;;9.95;3.60;;;6.30;99.90;;;;;;5072526;28;20051;-57
2023/04/13 01:05:14;;;;;;;7.30;3.80;;;6.30;99.90;;;;;;5035336;28;1079279;-58
2023/04/13 01:08:21;;;;;;;6.25;3.00;;;6.40;99.90;;;;;;5073258;28;20041;-59
2023/04/13 01:10:53;;;;;;;6.75;3.35;;;6.40;99.90;;;;;;5073477;28;20047;-59
2023/04/13 01:13:39;;;;;;;8.32;3.38;;;6.40;99.90;;;;;;5072231;28;20045;-59
2023/04/13 01:16:11;;;;;;;7.13;3.60;;;6.20;99.90;;;;;;5073099;28;20563;-59
2023/04/13 01:18:40;;;;;;;7.70;3.90;;;6.30;99.90;;;;;;5073108;28;20488;-59
2023/04/13 01:21:10;;;;;;;8.43;3.92;;;6.30;99.90;;;;;;5073250;28;20129;-59
2023/04/13 01:23:45;;;;;;;8.98;3.67;;;6.30;99.90;;;;;;5072109;28;20045;-59
2023/04/13 01:26:11;;;;;;;8.07;4.68;;;6.00;99.90;;;;;;5072886;28;20045;-59
2023/04/13 01:28:38;;;;;;;9.32;4.65;;;6.00;99.90;;;;;;5072021;28;20550;-59
2023/04/13 01:31:10;;;;;;;9.15;4.63;;;6.30;99.90;;;;;;5073190;28;20059;-58
2023/04/13 01:33:40;;;;;;;6.90;4.00;;;6.00;99.90;;;;;;5072909;28;20108;-59
2023/04/13 01:36:07;;;;;;;7.25;3.40;;;6.30;99.90;;;;;;5072876;28;20047;-58
2023/04/13 01:38:34;;;;;;;7.50;3.30;;;6.20;99.90;;;;;;5072585;28;20075;-58
2023/04/13 01:41:00;;;;;;;8.93;3.58;;;5.90;99.90;;;;;;5072681;28;20041;-59
2023/04/13 01:43:26;;;;;;;6.72;2.90;;;5.90;99.90;;;;;;5072737;28;20037;-58
2023/04/13 01:46:15;;;;;;;8.85;3.50;;;6.30;99.90;;;;;;5072865;28;20094;-58
2023/04/13 01:48:52;;;;;;;8.80;3.33;;;5.80;99.90;;;;;;5072852;28;20036;-58
2023/04/13 01:51:23;;;;;;;6.57;3.72;;;6.00;99.90;;;;;;5072329;28;20029;-58
2023/04/13 01:54:00;;;;;;;7.88;3.55;;;5.90;99.90;;;;;;5072400;28;20047;-58
2023/04/13 01:56:27;;;;;;;8.77;4.20;;;5.90;99.90;;;;;;5072568;28;20051;-58
2023/04/13 01:58:57;;;;;;;9.18;4.03;;;6.10;99.90;;;;;;5072460;28;20076;-57
2023/04/13 02:01:23;;;;;;;5.97;3.38;;;5.90;99.90;;;;;;5072405;28;20481;-60
2023/04/13 02:03:49;;;;;;;9.45;3.80;;;6.20;99.90;;;;;;5070681;28;20083;-58
2023/04/13 02:06:15;;;;;;;8.70;3.83;;;6.20;99.90;;;;;;5071093;28;20044;-58
2023/04/13 02:08:41;;;;;;;8.00;3.70;;;6.20;99.90;;;;;;5071899;28;20043;-58
2023/04/13 02:11:07;;;;;;;6.85;3.47;;;6.30;99.90;;;;;;5072159;28;20040;-58
2023/04/13 02:13:33;;;;;;;8.50;3.63;;;5.90;99.90;;;;;;5072181;28;20052;-58
2023/04/13 02:15:59;;;;;;;7.30;3.25;;;5.90;99.90;;;;;;5072158;28;20374;-58
2023/04/13 02:18:25;;;;;;;7.63;3.47;;;6.30;99.90;;;;;;5072060;28;20709;-58
2023/04/13 02:21:00;;;;;;;9.27;3.42;;;6.10;99.90;;;;;;5072043;28;20389;-58
2023/04/13 02:23:27;;;;;;;7.53;3.33;;;6.10;99.90;;;;;;5072171;28;20392;-58
2023/04/13 02:25:52;;;;;;;9.55;3.60;;;6.20;99.90;;;;;;5070880;28;20049;-59
2023/04/13 02:28:18;;;;;;;7.40;3.20;;;6.00;99.90;;;;;;5071921;28;20056;-59
2023/04/13 02:30:44;;;;;;;9.57;3.67;;;6.30;99.90;;;;;;5070730;28;20080;-58
2023/04/13 02:33:09;;;;;;;9.23;3.80;;;6.20;99.90;;;;;;5071770;28;20048;-58
2023/04/13 02:35:37;;;;;;;7.63;3.25;;;6.30;99.90;;;;;;5071895;28;20044;-58
2023/04/13 02:38:05;;;;;;;9.00;3.50;;;6.30;99.90;;;;;;5070555;28;20169;-58
2023/04/13 02:40:31;;;;;;;7.63;3.58;;;6.20;99.90;;;;;;5071661;28;20076;-58
2023/04/13 02:42:58;;;;;;;8.82;3.42;;;6.20;99.90;;;;;;5070552;28;20122;-58
2023/04/13 02:45:25;;;;;;;7.30;3.45;;;6.00;99.90;;;;;;5071764;28;20037;-57
2023/04/13 02:47:51;;;;;;;6.20;3.00;;;5.90;99.90;;;;;;5071679;28;20044;-58
2023/04/13 02:50:17;;;;;;;7.18;3.22;;;6.00;99.90;;;;;;5070459;28;20040;-59
2023/04/13 02:52:43;;;;;;;9.48;3.17;;;6.00;99.90;;;;;;5071850;28;20048;-58
2023/04/13 02:55:10;;;;;;;6.30;3.00;;;6.30;99.90;;;;;;5071794;28;20080;-58
2023/04/13 02:57:35;;;;;;;6.03;2.55;;;6.30;99.90;;;;;;5070633;28;20048;-59
2023/04/13 03:00:06;;;;;;;7.55;3.33;;;6.40;99.90;;;;;;5071603;28;20047;-58
2023/04/13 03:02:34;;;;;;;7.40;2.50;;;6.40;99.90;;;;;;5071677;28;20365;-57
2023/04/13 03:05:02;;;;;;;7.55;2.85;;;5.90;99.90;;;;;;5070194;28;20497;-58
2023/04/13 03:07:27;;;;;;;6.85;2.33;;;6.40;99.90;;;;;;5071759;28;20037;-58
2023/04/13 03:09:54;;;;;;;5.47;2.30;;;6.30;99.90;;;;;;5072048;28;20085;-59
2023/04/13 03:12:19;;;;;;;7.32;2.40;;;6.30;99.90;;;;;;5071687;28;20055;-58
2023/04/13 03:14:45;;;;;;;8.48;2.67;;;6.40;99.90;;;;;;5071461;28;20048;-59
2023/04/13 03:17:11;;;;;;;10.75;2.70;;;6.40;99.90;;;;;;5070280;28;20048;-58
2023/04/13 03:19:37;;;;;;;6.75;2.30;;;6.30;99.90;;;;;;5071632;28;20111;-58
2023/04/13 03:22:03;;;;;;;5.88;2.53;;;6.00;99.90;;;;;;5071453;28;20107;-58
2023/04/13 03:24:29;;;;;;;6.15;2.17;;;6.20;99.90;;;;;;5069993;28;20260;-59
2023/04/13 03:26:55;;;;;;;6.03;2.33;;;6.30;99.90;;;;;;5071502;28;20093;-59
2023/04/13 03:29:24;;;;;;;6.18;2.13;;;6.40;99.90;;;;;;5069911;28;20040;-58
2023/04/13 03:31:50;;;;;;;7.90;2.38;;;5.90;99.90;;;;;;5070136;28;20174;-58
2023/04/13 03:34:17;;;;;;;6.35;2.70;;;6.10;99.90;;;;;;5071197;28;20119;-58
2023/04/13 03:36:43;;;;;;;6.05;2.50;;;5.90;99.90;;;;;;5071417;28;20036;-58
2023/04/13 03:39:09;;;;;;;5.50;2.30;;;6.40;99.90;;;;;;5071247;28;20033;-58
2023/04/13 03:41:35;;;;;;;6.35;2.50;;;6.10;99.90;;;;;;5071276;28;20043;-58
2023/04/13 03:44:00;;;;;;;6.85;2.63;;;6.20;99.90;;;;;;5071114;28;20456;-57
2023/04/13 03:46:26;;;;;;;6.22;2.60;;;6.20;99.90;;;;;;5072929;28;20040;-58
2023/04/13 03:48:52;;;;;;;5.15;2.40;;;5.90;99.90;;;;;;5074803;28;20080;-60
2023/04/13 03:51:18;;;;;;;5.38;2.38;;;6.40;99.90;;;;;;5074862;28;20119;-58
2023/04/13 03:53:43;;;;;;;6.43;2.33;;;6.40;99.90;;;;;;5074672;28;20472;-57
2023/04/13 03:56:09;;;;;;;6.13;2.30;;;6.00;99.90;;;;;;5074773;28;20040;-58
2023/04/13 03:58:35;;;;;;;5.95;2.47;;;6.00;99.90;;;;;;5074601;28;20052;-56
2023/04/13 04:01:00;;;;;;;6.20;2.78;;;6.20;99.90;;;;;;5073406;28;20523;-58
2023/04/13 04:03:26;;;;;;;4.60;2.10;;;5.90;99.90;;;;;;5074731;28;20090;-58
2023/04/13 04:05:52;;;;;;;6.30;2.85;;;6.40;99.90;;;;;;5074467;28;20475;-58
2023/04/13 04:08:17;;;;;;;5.70;2.53;;;5.90;99.90;;;;;;5074580;28;20118;-56
2023/04/13 04:10:43;;;;;;;6.53;2.40;;;6.00;99.90;;;;;;5074497;28;20455;-57
2023/04/13 04:13:09;;;;;;;5.00;2.30;;;5.90;99.90;;;;;;5074325;28;20131;-58
2023/04/13 04:15:34;;;;;;;5.13;2.00;;;5.90;99.90;;;;;;5074356;28;20036;-57
2023/04/13 04:18:00;;;;;;;5.80;2.42;;;6.10;99.90;;;;;;5073100;28;20040;-57
2023/04/13 04:20:26;;;;;;;7.47;2.55;;;5.80;99.90;;;;;;5056225;28;20139;-57
2023/04/13 04:22:52;;;;;;;6.07;2.08;;;6.10;99.90;;;;;;5074420;28;20124;-58
2023/04/13 04:25:26;;;;;;;5.88;2.40;;;6.00;99.90;;;;;;5074323;28;20036;-58
2023/04/13 04:27:56;;;;;;;7.88;2.20;;;5.70;99.90;;;;;;5074186;28;20482;-57
2023/04/13 04:30:23;;;;;;;6.10;2.15;;;5.70;99.90;;;;;;5074280;28;20036;-58
2023/04/13 04:32:51;;;;;;;5.95;2.60;;;6.10;99.90;;;;;;5072922;28;20040;-58
2023/04/13 04:35:19;;;;;;;4.95;2.03;;;5.90;99.90;;;;;;5072593;28;20091;-56
2023/04/13 04:37:48;;;;;;;5.43;2.63;;;5.70;99.90;;;;;;5072772;28;20052;-56
2023/04/13 04:40:14;;;;;;;6.43;3.03;;;6.10;99.90;;;;;;5074318;28;20050;-57
2023/04/13 04:42:41;;;;;;;7.07;2.28;;;5.60;99.90;;;;;;5073993;28;20045;-57
2023/04/13 04:45:07;;;;;;;5.75;2.60;;;6.10;99.90;;;;;;5073970;28;20067;-57
2023/04/13 04:47:40;;;;;;;5.70;2.42;;;5.30;99.90;;;;;;5073635;28;20097;-58
2023/04/13 04:50:07;;;;;;;5.20;2.22;;;5.90;99.90;;;;;;5073614;28;20048;-58
2023/04/13 04:52:33;;;;;;;6.07;2.40;;;5.30;99.90;;;;;;5073178;28;20049;-58
2023/04/13 04:54:58;;;;;;;5.25;2.92;;;5.50;99.90;;;;;;5073662;28;20514;-58
2023/04/13 04:57:24;;;;;;;7.82;2.40;;;5.60;99.90;;;;;;5072390;28;20037;-58
2023/04/13 04:59:50;;;;;;;5.60;2.35;;;6.00;99.90;;;;;;5072547;28;20178;-58
2023/04/13 05:02:16;;;;;;;5.20;2.33;;;5.50;99.90;;;;;;5073543;28;20055;-58
2023/04/13 05:04:42;;;;;;;7.97;2.40;;;5.50;99.90;;;;;;5073328;28;20705;-58
2023/04/13 05:07:09;;;;;;;7.22;3.00;;;5.90;99.90;;;;;;5072139;28;20052;-59
2023/04/13 05:09:36;;;;;;;6.35;2.50;;;5.90;99.90;;;;;;5073296;28;20102;-58
2023/04/13 05:12:03;;;;;;;7.88;2.35;;;6.10;99.90;;;;;;5072240;28;20149;-58
2023/04/13 05:14:29;;;;;;;6.95;2.65;;;5.60;99.90;;;;;;5073287;28;20040;-60
2023/04/13 05:16:54;;;;;;;6.68;2.75;;;6.10;99.90;;;;;;5072187;28;20121;-59
2023/04/13 05:19:20;;;;;;;5.47;2.90;;;5.60;99.90;;;;;;5073206;28;20066;-59
2023/04/13 05:21:46;;;;;;;7.63;3.08;;;5.70;99.90;;;;;;5072945;28;20083;-59
2023/04/13 05:24:12;;;;;;;6.78;3.10;;;5.70;99.90;;;;;;5071767;28;20124;-58
2023/04/13 05:26:37;;;;;;;9.75;3.13;;;6.10;99.90;;;;;;5072941;28;20036;-59
2023/04/13 05:29:05;;;;;;;7.80;3.50;;;5.80;99.90;;;;;;5072946;28;20040;-58
2023/04/13 05:31:31;;;;;;;7.68;3.80;;;6.10;99.90;;;;;;5072988;28;20098;-57
2023/04/13 05:33:56;;;;;;;9.73;3.80;;;6.10;99.90;;;;;;5072952;28;20335;-59
2023/04/13 05:36:22;;;;;;;7.43;3.97;;;5.60;99.90;;;;;;5071599;28;20083;-58
2023/04/13 05:38:48;;;;;;;9.27;4.45;;;6.10;99.90;;;;;;5073016;28;20484;-59
2023/04/13 05:41:13;;;;;;;7.50;3.90;;;5.90;99.90;;;;;;5072156;28;20075;-59
2023/04/13 05:43:39;;;;;;;8.43;4.22;;;5.80;99.90;;;;;;5069799;28;20041;-56
2023/04/13 05:46:06;;;;;;;8.93;4.28;;;5.90;99.90;;;;;;5071214;28;20045;-59
2023/04/13 05:48:32;;;;;;;7.35;4.03;;;5.90;99.90;;;;;;5071057;28;20089;-58
2023/04/13 05:50:58;;;;;;;8.55;3.97;;;6.00;99.90;;;;;;5070859;28;20123;-59
2023/04/13 05:53:24;;;;;;;7.75;3.50;;;6.40;99.90;;;;;;5071238;28;20044;-58
2023/04/13 05:55:51;;;;;;;7.43;3.50;;;6.50;99.90;;;;;;5070829;28;20111;-57
2023/04/13 05:58:17;;;;;;;8.90;4.28;;;6.20;99.90;;;;;;5070913;28;20041;-58
2023/04/13 06:00:43;;;;;;;7.63;4.07;;;6.80;99.90;;;;;;5070908;28;20044;-58
2023/04/13 06:03:09;;;;;;;6.82;3.72;;;6.80;99.90;;;;;;5070747;28;20365;-58
2023/04/13 06:05:36;;;;;;;9.27;3.55;;;6.50;99.90;;;;;;5070397;28;20048;-59
2023/04/13 06:08:02;;;;;;;8.13;3.22;;;6.40;99.90;;;;;;5070948;28;20330;-59
2023/04/13 06:10:28;;;;;;;8.52;3.20;;;6.40;99.90;;;;;;5070369;28;20032;-59
2023/04/13 06:12:54;;;;;;;7.45;3.40;;;7.00;99.90;;;;;;5070662;28;20051;-59
2023/04/13 06:15:20;;;;;;;8.45;3.40;;;6.60;99.90;;;;;;5070703;28;20339;-59
2023/04/13 06:17:46;;;;;;;9.93;3.35;;;6.40;99.90;;;;;;5070483;28;20044;-59
2023/04/13 06:20:13;;;;;;;7.85;3.00;;;6.30;99.90;;;;;;5070580;28;20399;-58
2023/04/13 06:22:39;;;;;;;6.28;2.40;;;6.30;99.90;;;;;;5070471;28;20048;-59
2023/04/13 06:25:05;;;;;;;6.35;2.97;;;6.50;99.90;;;;;;5070683;28;20086;-59
2023/04/13 06:27:32;;;;;;;12.93;3.00;;;6.40;99.90;;;;;;5069076;28;20465;-58
2023/04/13 06:29:58;;;;;;;9.43;2.92;;;6.60;99.90;;;;;;5070481;28;20086;-58
2023/04/13 06:32:24;;;;;;;7.53;2.58;;;6.40;99.90;;;;;;5070897;28;20068;-58
2023/04/13 06:34:49;;;;;;;8.63;2.70;;;6.30;99.90;;;;;;5070383;28;20098;-58
2023/04/13 06:37:16;;;;;;;7.50;2.53;;;6.70;99.90;;;;;;5070519;28;20058;-57
2023/04/13 06:39:42;;;;;;;6.53;3.05;;;6.50;99.90;;;;;;5070713;28;20461;-58
2023/04/13 06:42:07;;;;;;;6.63;2.28;;;6.70;99.90;;;;;;5069979;28;20117;-58
2023/04/13 06:44:33;;;;;;;7.15;2.58;;;6.70;99.90;;;;;;5070844;28;20032;-57
2023/04/13 06:46:59;;;;;;;6.03;2.55;;;6.30;99.90;;;;;;5059616;28;20036;-58
2023/04/13 06:49:25;;;;;;;8.35;2.25;;;6.90;99.90;;;;;;5064696;28;20041;-58
2023/04/13 06:51:50;;;;;;;7.30;2.85;;;6.50;99.90;;;;;;5057315;28;20021;-59
2023/04/13 06:54:16;;;;;;;7.70;2.47;;;6.70;99.90;;;;;;5052185;28;20505;-57
2023/04/13 06:56:42;;;;;;;6.95;2.80;;;6.50;99.90;;;;;;5050008;28;20070;-59
2023/04/13 06:59:07;;;;;;;8.00;3.17;;;6.50;99.90;;;;;;5050234;28;20048;-58
2023/04/13 07:01:33;;;;;;;10.45;3.13;;;7.20;99.90;;;;;;5050028;28;20040;-58
2023/04/13 07:03:59;;;;;;;8.57;3.90;;;7.30;99.90;;;;;;5049772;28;20065;-58
2023/04/13 07:06:25;;;;;;;11.10;4.00;;;7.10;99.90;;;;;;5049964;28;20119;-58
2023/04/13 07:08:51;;;;;;;7.57;3.63;;;7.30;99.90;;;;;;5050134;28;20049;-57
2023/04/13 07:11:17;;;;;;;9.95;3.53;;;7.30;99.90;;;;;;5050063;28;20103;-59
2023/04/13 07:13:43;;;;;;;10.15;4.57;;;7.10;99.90;;;;;;5049984;28;20037;-58
2023/04/13 07:16:10;;;;;;;9.35;3.45;;;7.20;99.90;;;;;;5049922;28;20088;-57
2023/04/13 07:18:36;;;;;;;10.40;3.90;;;7.00;99.90;;;;;;5049166;28;20045;-59
2023/04/13 07:21:02;;;;;;;10.80;3.53;;;7.00;99.90;;;;;;5051223;28;20044;-59
2023/04/13 07:23:28;;;;;;;9.05;3.45;;;7.30;99.90;;;;;;5053431;28;20037;-58
2023/04/13 07:25:53;;;;;;;10.52;3.83;;;7.10;99.90;;;;;;5053872;28;20068;-59
2023/04/13 07:28:19;;;;;;;8.65;3.63;;;7.20;99.90;;;;;;5053766;28;20109;-57
2023/04/13 07:30:45;;;;;;;10.63;3.30;;;7.30;99.90;;;;;;5053753;28;20118;-59
2023/04/13 07:33:11;;;;;;;15.40;4.05;;;7.60;99.90;;;;;;5053562;28;20037;-58
2023/04/13 07:35:38;;;;;;;11.48;3.72;;;7.80;99.90;;;;;;5053953;28;20041;-58
2023/04/13 07:38:04;;;;;;;12.25;3.80;;;7.80;99.90;;;;;;5053766;28;20604;-59
2023/04/13 07:40:30;;;;;;;11.77;3.58;;;8.00;99.90;;;;;;5052346;28;20485;-58
2023/04/13 07:42:56;;;;;;;9.35;3.15;;;7.90;99.90;;;;;;5062725;28;20048;-58
2023/04/13 07:45:21;;;;;;;11.93;3.22;;;8.30;99.90;;;;;;5064752;28;20201;-57
2023/04/13 07:47:47;;;;;;;9.07;3.05;;;8.20;99.90;;;;;;5073123;28;20486;-58
2023/04/13 07:50:14;;;;;;;11.65;3.72;;;8.40;99.90;;;;;;5073478;28;20067;-59
2023/04/13 07:52:39;;;;;;;13.75;3.28;;;8.60;99.90;;;;;;5073194;28;20048;-59
2023/04/13 07:55:06;;;;;;;9.50;3.63;;;8.40;99.90;;;;;;5060928;28;20531;-61
2023/04/13 07:57:32;;;;;;;10.27;2.67;;;8.20;99.90;;;;;;5061736;28;20041;-60
2023/04/13 07:59:58;;;;;;;10.30;2.72;;;8.40;99.90;;;;;;5062226;28;20047;-60
2023/04/13 08:02:24;;;;;;;9.20;3.60;;;8.40;99.90;;;;;;5061692;28;20051;-60
2023/04/13 08:04:51;;;;;;;8.55;2.45;;;8.40;99.90;;;;;;5059327;28;20053;-60
2023/04/13 08:07:17;;;;;;;9.18;3.25;;;8.40;99.90;;;;;;5053188;28;20114;-60
2023/04/13 08:09:47;;;;;;;10.18;2.53;;;8.60;99.90;;;;;;5053152;28;20037;-60
2023/04/13 08:12:13;;;;;;;9.05;2.97;;;8.90;99.90;;;;;;5053136;28;20029;-60
2023/04/13 08:14:38;;;;;;;13.05;3.83;;;9.00;99.90;;;;;;5052787;28;20047;-59
2023/04/13 08:17:04;;;;;;;8.93;2.47;;;8.90;99.90;;;;;;5053047;28;20041;-59
2023/04/13 08:19:31;;;;;;;7.80;2.83;;;9.30;99.90;;;;;;5052917;28;20044;-60
2023/04/13 08:21:57;;;;;;;7.88;1.88;;;9.40;99.90;;;;;;5052775;28;20099;-60
2023/04/13 08:24:24;;;;;;;9.30;2.50;;;9.60;99.90;;;;;;5052697;28;20032;-60
2023/04/13 08:26:51;;;;;;;11.85;3.35;;;9.30;99.90;;;;;;5053801;28;20123;-62
2023/04/13 08:29:16;;;;;;;9.15;2.38;;;9.70;99.90;;;;;;5053974;28;20045;-59
2023/04/13 08:31:42;;;;;;;6.15;1.90;;;9.70;99.90;;;;;;5053905;28;20063;-60
2023/04/13 08:34:12;;;;;;;10.82;2.83;;;9.40;99.90;;;;;;5054149;28;20452;-59
2023/04/13 08:36:38;;;;;;;7.78;2.10;;;9.20;99.90;;;;;;5054069;28;20056;-59
2023/04/13 08:39:08;;;;;;;9.85;2.22;;;9.20;99.90;;;;;;5053974;28;20037;-59
2023/04/13 08:41:39;;;;;;;7.38;2.30;;;9.00;99.90;;;;;;5052812;28;20045;-60
2023/04/13 08:44:06;;;;;;;7.83;2.50;;;8.70;99.90;;;;;;5052505;28;20102;-60
2023/04/13 08:46:35;;;;;;;10.02;2.50;;;8.50;99.90;;;;;;5054065;28;20358;-60
2023/04/13 08:49:03;;;;;;;8.90;2.85;;;8.40;99.90;;;;;;5069461;28;20036;-61
2023/04/13 08:51:30;;;;;;;8.18;2.33;;;8.50;99.90;;;;;;5053677;28;20496;-60
2023/04/13 08:53:55;;;;;;;6.72;2.45;;;8.60;99.90;;;;;;5052510;28;20473;-60
2023/04/13 08:56:22;;;;;;;9.10;2.00;;;8.50;99.90;;;;;;5053603;28;20056;-60
2023/04/13 08:58:51;;;;;;;9.68;2.30;;;8.20;99.90;;;;;;5053956;28;20036;-60
2023/04/13 09:01:19;;;;;;;6.97;2.15;;;8.30;99.90;;;;;;5053514;28;20501;-60
2023/04/13 09:03:53;;;;;;;4.60;1.38;;;8.70;99.90;;;;;;5053499;28;20071;-60
2023/04/13 09:06:26;;;;;;;7.18;1.70;;;8.60;99.90;;;;;;5053559;28;20077;-59
2023/04/13 09:08:54;;;;;;;5.75;1.30;;;8.60;99.90;;;;;;5053344;28;20049;-60
2023/04/13 09:11:21;;;;;;;4.88;1.17;;;8.60;99.90;;;;;;5053430;28;20041;-60
2023/04/13 09:13:50;;;;;;;5.72;1.35;;;8.90;99.90;;;;;;5053347;28;20092;-60
2023/04/13 09:16:18;;;;;;;6.22;1.52;;;8.90;99.90;;;;;;5052301;28;20049;-60
2023/04/13 09:18:54;;;;;;;5.25;1.20;;;8.70;99.90;;;;;;5053188;28;20389;-61
2023/04/13 09:21:21;;;;;;;3.47;1.30;;;8.60;99.90;;;;;;5051995;28;20431;-60
2023/04/13 09:23:54;;;;;;;5.95;1.25;;;8.60;99.90;;;;;;5051791;28;20132;-60
2023/04/13 09:26:20;;;;;;;4.63;1.05;;;8.70;99.90;;;;;;5053197;28;20060;-61
2023/04/13 09:28:46;;;;;;;5.85;1.50;;;8.30;99.90;;;;;;5052966;28;20493;-61
2023/04/13 09:31:12;;;;;;;6.93;2.72;;;8.00;99.90;;;;;;5051850;28;20037;-61
2023/04/13 09:33:49;;;;;;;3.33;0.95;;;8.10;99.90;;;;;;5052911;28;20048;-60
2023/04/13 09:36:19;;;;;;;4.75;1.08;;;7.60;99.90;;;;;;5052950;28;20045;-60
2023/04/13 09:38:53;;;;;;;5.57;1.58;;;7.60;99.90;;;;;;5052935;28;20050;-60
2023/04/13 09:41:31;;;;;;;4.45;1.20;;;7.90;99.90;;;;;;5052681;28;20044;-59
2023/04/13 09:44:17;;;;;;;4.32;1.10;;;7.90;99.90;;;;;;5051899;28;20506;-60
2023/04/13 09:46:44;;;;;;;4.43;1.08;;;8.30;99.90;;;;;;5053212;28;20064;-60
2023/04/13 09:49:10;;;;;;;4.20;1.10;;;8.20;99.90;;;;;;5069291;28;20036;-60
2023/04/13 09:51:40;;;;;;;6.18;1.08;;;7.90;99.90;;;;;;5072534;28;20036;-60
2023/04/13 09:54:06;;;;;;;4.47;1.20;;;8.10;99.90;;;;;;5072527;28;20045;-59
2023/04/13 09:56:51;;;;;;;3.67;1.00;;;8.00;99.90;;;;;;5072641;28;20044;-60
2023/04/13 09:59:24;;;;;;;4.38;1.10;;;8.50;99.90;;;;;;5072554;28;20060;-60
2023/04/13 10:01:50;;;;;;;2.83;0.73;;;8.30;99.90;;;;;;5070827;28;20048;-59
2023/04/13 10:04:16;;;;;;;2.33;1.05;;;8.00;99.90;;;;;;5064268;28;20071;-60
2023/04/13 10:06:43;;;;;;;0.60;0.40;;;7.80;99.90;;;;;;5061654;28;20036;-59
2023/04/13 10:09:09;;;;;;;1.05;0.50;;;8.00;99.90;;;;;;5056368;28;20077;-60
2023/04/13 10:11:45;;;;;;;2.58;0.57;;;7.70;99.90;;;;;;5051788;28;20078;-60
2023/04/13 10:14:15;;;;;;;2.25;0.60;;;8.00;99.90;;;;;;5050674;28;20052;-59
2023/04/13 10:16:58;;;;;;;1.98;0.80;;;8.10;99.90;;;;;;5052246;28;20506;-59
2023/04/13 10:19:28;;;;;;;1.20;0.57;;;8.00;99.90;;;;;;5051517;28;20134;-60
2023/04/13 10:21:55;;;;;;;2.08;0.80;;;8.10;99.90;;;;;;5049583;28;20048;-60
2023/04/13 10:24:22;;;;;;;1.77;0.70;;;8.70;99.90;;;;;;5051445;28;20049;-59
2023/04/13 10:26:55;;;;;;;1.83;0.90;;;8.40;99.90;;;;;;5051784;28;20041;-60
2023/04/13 10:29:27;;;;;;;;;;;8.60;99.90;;;;;;5062668;28;20151;-58
2023/04/13 10:31:55;;;;;;;4.65;1.10;;;9.00;99.90;;;;;;5061642;28;19916;-60
2023/04/13 10:34:26;;;;;;;2.80;1.20;;;9.10;99.90;;;;;;5061938;28;20500;-60
2023/04/13 10:36:57;;;;;;;4.32;1.20;;;9.20;99.90;;;;;;5058873;28;20036;-58
2023/04/13 10:39:43;;;;;;;5.00;1.33;;;9.50;99.90;;;;;;5065030;28;20064;-60
2023/04/13 10:42:11;;;;;;;5.68;1.30;;;9.50;99.90;;;;;;5071386;28;20075;-60
2023/04/13 10:44:55;;;;;;;5.00;1.73;;;9.60;99.90;;;;;;5071553;28;20051;-60
2023/04/13 10:47:21;;;;;;;5.53;1.45;;;9.50;99.90;;;;;;5070369;28;20049;-60
2023/04/13 10:49:48;;;;;;;7.60;1.65;;;9.40;99.90;;;;;;5065827;28;20056;-60
2023/04/13 10:52:15;;;;;;;6.18;2.17;;;8.90;99.90;;;;;;5062348;28;20071;-60
2023/04/13 10:54:42;;;;;;;7.13;1.40;;;8.60;99.90;;;;;;5062234;28;20463;-60
2023/04/13 10:57:10;;;;;;;4.72;1.35;;;8.50;99.90;;;;;;5064364;28;20394;-60
2023/04/13 10:59:55;;;;;;;6.72;1.50;;;8.10;99.90;;;;;;5066653;28;20029;-60
2023/04/13 11:02:24;;;;;;;3.67;1.40;;;8.10;99.90;;;;;;5055564;28;20106;-60
2023/04/13 11:04:51;;;;;;;6.40;1.48;;;8.00;99.90;;;;;;5055771;28;20052;-60
2023/04/13 11:07:22;;;;;;;3.40;1.25;;;7.50;99.90;;;;;;5060300;28;20045;-59
2023/04/13 11:09:52;;;;;;;3.05;0.93;;;7.60;99.90;;;;;;5063683;28;20351;-61
2023/04/13 11:12:18;;;;;;;3.58;1.00;;;7.40;99.90;;;;;;5064305;28;20040;-60
2023/04/13 11:14:48;;;;;;;3.42;0.90;;;7.90;99.90;;;;;;5066734;28;20041;-60
2023/04/13 11:17:16;;;;;;;5.15;1.20;;;8.00;99.90;;;;;;5069699;28;20094;-59
2023/04/13 11:19:49;;;;;;;5.45;1.50;;;8.70;99.90;;;;;;5074270;28;20072;-60
2023/04/13 11:22:17;;;;;;;8.77;2.00;;;9.30;99.90;;;;;;5075288;28;20284;-58
2023/04/13 11:24:44;;;;;;;10.88;2.50;;;9.50;99.90;;;;;;5071558;28;20045;-57
2023/04/13 11:27:17;;;;;;;7.75;2.10;;;9.60;99.90;;;;;;5062986;28;20049;-58
2023/04/13 11:29:43;;;;;;;11.57;2.10;;;9.90;99.90;;;;;;5065427;28;20084;-60
2023/04/13 11:32:17;;;;;;;10.38;2.25;;;9.60;99.90;;;;;;5067469;28;20056;-61
2023/04/13 11:34:43;;;;;;;12.95;2.72;;;9.80;99.90;;;;;;5068638;28;20044;-61
2023/04/13 11:37:10;;;;;;;11.73;2.70;;;9.90;99.90;;;;;;5066615;28;20044;-61
2023/04/13 11:39:37;;;;;;;15.98;2.80;;;9.80;99.90;;;;;;5066976;28;20432;-62
2023/04/13 11:42:06;;;;;;;9.07;1.95;;;9.70;99.90;;;;;;5066293;28;20032;-59
2023/04/13 11:44:36;;;;;;;8.90;1.90;;;8.80;99.90;;;;;;5065890;28;20072;-60
2023/04/13 11:47:07;;;;;;;10.27;1.83;;;8.60;99.90;;;;;;5068052;28;20071;-60
2023/04/13 11:49:33;;;;;;;6.00;1.40;;;8.30;99.90;;;;;;5067550;28;20048;-60
2023/04/13 11:52:00;;;;;;;5.88;1.50;;;8.20;99.90;;;;;;5066492;28;20242;-60
2023/04/13 11:54:27;;;;;;;9.63;2.17;;;8.40;99.90;;;;;;5065606;28;20036;-59
2023/04/13 11:56:53;;;;;;;8.60;1.75;;;8.20;99.90;;;;;;5067242;28;20068;-60
2023/04/13 11:59:23;;;;;;;10.70;2.05;;;8.70;99.90;;;;;;5067012;28;20033;-61
2023/04/13 12:01:50;;;;;;;14.05;2.63;;;8.90;99.90;;;;;;5066676;28;20048;-60
2023/04/13 12:04:17;;;;;;;8.85;2.40;;;8.70;99.90;;;;;;5066703;28;20190;-61
2023/04/13 12:06:45;;;;;;;12.15;3.28;;;8.90;99.90;;;;;;5065823;28;20041;-60
2023/04/13 12:09:11;;;;;;;11.82;2.20;;;8.90;99.90;;;;;;5065809;28;20044;-60
2023/04/13 12:11:42;;;;;;;9.82;1.92;;;9.00;99.90;;;;;;5066977;28;20131;-59
2023/04/13 12:14:17;;;;;;;13.32;2.65;;;9.20;99.90;;;;;;5066748;28;20129;-60
2023/04/13 12:16:47;;;;;;;10.30;2.42;;;9.30;99.90;;;;;;5066551;28;20052;-60
2023/04/13 12:19:12;;;;;;;11.50;2.35;;;9.40;99.90;;;;;;5065375;28;20047;-61
2023/04/13 12:21:48;;;;;;;12.98;2.35;;;9.00;99.90;;;;;;5055161;28;20412;-60
2023/04/13 12:24:14;;;;;;;15.15;3.30;;;9.00;99.90;;;;;;5053182;28;20405;-58
2023/04/13 12:26:40;;;;;;;14.38;3.13;;;9.10;99.90;;;;;;5053322;28;20044;-58
2023/04/13 12:29:07;;;;;;;12.48;3.10;;;9.00;99.90;;;;;;5053296;28;20041;-59
2023/04/13 12:31:36;;;;;;;13.65;2.47;;;9.30;99.90;;;;;;5053409;28;20052;-59
2023/04/13 12:34:03;;;;;;;13.07;2.65;;;9.30;99.90;;;;;;5054614;28;20093;-59
2023/04/13 12:36:30;;;;;;;11.68;2.40;;;9.50;99.90;;;;;;5062475;28;20071;-59
2023/04/13 12:38:59;;;;;;;15.80;2.58;;;9.30;99.90;;;;;;5062091;28;20459;-58
2023/04/13 12:41:25;;;;;;;14.32;3.00;;;9.30;99.90;;;;;;5061520;28;20040;-59
2023/04/13 12:43:51;;;;;;;9.55;2.33;;;9.20;99.90;;;;;;5052581;28;20049;-58
2023/04/13 12:46:17;;;;;;;9.13;2.30;;;9.20;99.90;;;;;;5053849;28;20119;-58
2023/04/13 12:48:43;;;;;;;14.60;2.25;;;9.00;99.90;;;;;;5065472;28;20124;-58
2023/04/13 12:51:08;;;;;;;12.60;2.55;;;9.10;99.90;;;;;;5073725;28;20098;-59
2023/04/13 12:53:35;;;;;;;10.38;2.65;;;9.10;99.90;;;;;;5073100;28;20396;-59
2023/04/13 12:56:01;;;;;;;13.07;2.65;;;9.10;99.90;;;;;;5072128;28;20036;-59
2023/04/13 12:58:26;;;;;;;15.63;2.28;;;9.20;99.90;;;;;;5071615;28;20106;-58
2023/04/13 13:00:52;;;;;;;11.32;2.38;;;9.30;99.90;;;;;;5066688;28;20043;-59